Delta Virtual Airport Information Service

Pago Pago International Airport

ICAO: NSTU Country: Samoa
Latitude: -14.3316 Longitude: -170.711
Latest Arrival : HAL1465 (PHNL-NSTU) Latest Departure : DALJUMP (NSTU-KSLC)


WX CaptureLIVE
Data provided by noaa.gov | Fetched at 14:24:21

METAR : NSTU 291850Z 09013KT 12SM SCT019 28/25 A2988 RMK SLP120 T02830246

TAF : NSTU 291730Z 2918/3018 09015KT P6SM VCSH FEW025 BKN040 BKN100= NWWW 291700Z 2918/3018 12005KT 9999 SCT025 SCT045 PROB30 TEMPO 2918/2921 SHRA BKN014 BECMG 2922/2924 14020KT BECMG 3008/3010 VRB02KT


Runway Data for NSTU
Data provided by openaviationdata.com

Runway ID Mag Var Hdg Length Elevation Surface ILS Freq ILS Id ILS Slope
5 11 48° 10007 ft 32 ft Asphalt 110.3 ITUT 3
8 11 77° 3801 ft 32 ft Asphalt -- -- --
23 11 228° 10007 ft 32 ft Asphalt -- -- --
26 11 257° 3801 ft 32 ft Asphalt -- -- --

Pago Pago International Airport, Samoa
Use only for reference purposes



Not for navigational purposes.